sensor_id;sensor_type;location;lat;lon;timestamp;temperature;humidity
62575;DHT22;70119;45.638;11.714;2023-07-22T00:01:15;32.40;48.40
62575;DHT22;70119;45.638;11.714;2023-07-22T00:03:41;32.40;48.40
62575;DHT22;70119;45.638;11.714;2023-07-22T00:06:09;32.40;48.30
62575;DHT22;70119;45.638;11.714;2023-07-22T00:08:35;32.30;48.20
62575;DHT22;70119;45.638;11.714;2023-07-22T00:11:03;32.30;48.20
62575;DHT22;70119;45.638;11.714;2023-07-22T00:13:29;32.30;48.20
62575;DHT22;70119;45.638;11.714;2023-07-22T00:15:56;32.30;48.20
62575;DHT22;70119;45.638;11.714;2023-07-22T00:18:23;32.30;48.20
62575;DHT22;70119;45.638;11.714;2023-07-22T00:20:49;32.30;48.20
62575;DHT22;70119;45.638;11.714;2023-07-22T00:23:16;32.30;48.20
62575;DHT22;70119;45.638;11.714;2023-07-22T00:25:42;32.30;48.10
62575;DHT22;70119;45.638;11.714;2023-07-22T00:28:08;32.30;48.10
62575;DHT22;70119;45.638;11.714;2023-07-22T00:30:34;32.20;48.00
62575;DHT22;70119;45.638;11.714;2023-07-22T00:33:03;32.20;48.00
62575;DHT22;70119;45.638;11.714;2023-07-22T00:35:29;32.20;48.00
62575;DHT22;70119;45.638;11.714;2023-07-22T00:37:55;32.20;48.00
62575;DHT22;70119;45.638;11.714;2023-07-22T00:40:21;32.20;48.00
62575;DHT22;70119;45.638;11.714;2023-07-22T00:42:47;32.20;47.90
62575;DHT22;70119;45.638;11.714;2023-07-22T00:45:13;32.10;47.80
62575;DHT22;70119;45.638;11.714;2023-07-22T00:47:39;32.20;47.80
62575;DHT22;70119;45.638;11.714;2023-07-22T00:50:07;32.10;47.70
62575;DHT22;70119;45.638;11.714;2023-07-22T00:52:36;32.10;47.70
62575;DHT22;70119;45.638;11.714;2023-07-22T00:55:02;32.10;47.70
62575;DHT22;70119;45.638;11.714;2023-07-22T00:57:29;32.10;47.70
62575;DHT22;70119;45.638;11.714;2023-07-22T00:59:55;32.20;47.70
62575;DHT22;70119;45.638;11.714;2023-07-22T01:02:21;32.10;47.60
62575;DHT22;70119;45.638;11.714;2023-07-22T01:04:49;32.10;47.60
62575;DHT22;70119;45.638;11.714;2023-07-22T01:07:15;32.10;47.70
62575;DHT22;70119;45.638;11.714;2023-07-22T01:09:43;32.10;47.60
62575;DHT22;70119;45.638;11.714;2023-07-22T01:12:09;32.10;47.60
62575;DHT22;70119;45.638;11.714;2023-07-22T01:14:39;32.10;47.50
62575;DHT22;70119;45.638;11.714;2023-07-22T01:17:08;32.10;47.50
62575;DHT22;70119;45.638;11.714;2023-07-22T01:19:35;32.10;47.50
62575;DHT22;70119;45.638;11.714;2023-07-22T01:22:03;32.10;47.50
62575;DHT22;70119;45.638;11.714;2023-07-22T01:24:30;32.10;47.50
62575;DHT22;70119;45.638;11.714;2023-07-22T01:26:57;32.10;47.40
62575;DHT22;70119;45.638;11.714;2023-07-22T01:29:23;32.10;47.30
62575;DHT22;70119;45.638;11.714;2023-07-22T01:31:51;32.00;47.30
62575;DHT22;70119;45.638;11.714;2023-07-22T01:34:18;32.00;47.30
62575;DHT22;70119;45.638;11.714;2023-07-22T01:36:48;32.00;47.30
62575;DHT22;70119;45.638;11.714;2023-07-22T01:39:17;32.10;47.30
62575;DHT22;70119;45.638;11.714;2023-07-22T01:41:44;32.00;47.30
62575;DHT22;70119;45.638;11.714;2023-07-22T01:44:10;32.00;47.20
62575;DHT22;70119;45.638;11.714;2023-07-22T01:46:39;32.10;47.00
62575;DHT22;70119;45.638;11.714;2023-07-22T01:49:07;32.10;46.70
62575;DHT22;70119;45.638;11.714;2023-07-22T01:51:36;32.10;46.40
62575;DHT22;70119;45.638;11.714;2023-07-22T01:54:06;32.10;46.20
62575;DHT22;70119;45.638;11.714;2023-07-22T01:56:33;32.10;46.00
62575;DHT22;70119;45.638;11.714;2023-07-22T01:58:58;32.10;45.70
62575;DHT22;70119;45.638;11.714;2023-07-22T02:01:24;32.10;45.90
62575;DHT22;70119;45.638;11.714;2023-07-22T02:03:50;32.10;46.10
62575;DHT22;70119;45.638;11.714;2023-07-22T02:06:16;32.10;46.00
62575;DHT22;70119;45.638;11.714;2023-07-22T02:08:42;32.10;46.00
62575;DHT22;70119;45.638;11.714;2023-07-22T02:11:08;32.10;45.90
62575;DHT22;70119;45.638;11.714;2023-07-22T02:13:35;32.00;45.90
62575;DHT22;70119;45.638;11.714;2023-07-22T02:16:01;32.00;45.90
62575;DHT22;70119;45.638;11.714;2023-07-22T02:18:27;32.00;45.90
62575;DHT22;70119;45.638;11.714;2023-07-22T02:20:54;32.00;45.90
62575;DHT22;70119;45.638;11.714;2023-07-22T02:23:20;32.00;45.70
62575;DHT22;70119;45.638;11.714;2023-07-22T02:25:50;32.00;45.70
62575;DHT22;70119;45.638;11.714;2023-07-22T02:28:17;32.00;45.70
62575;DHT22;70119;45.638;11.714;2023-07-22T02:30:47;32.10;45.70
62575;DHT22;70119;45.638;11.714;2023-07-22T02:33:13;32.00;45.60
62575;DHT22;70119;45.638;11.714;2023-07-22T02:35:41;32.00;45.60
62575;DHT22;70119;45.638;11.714;2023-07-22T02:38:07;32.00;45.60
62575;DHT22;70119;45.638;11.714;2023-07-22T02:40:39;32.00;45.50
62575;DHT22;70119;45.638;11.714;2023-07-22T02:43:05;32.00;45.50
62575;DHT22;70119;45.638;11.714;2023-07-22T02:45:33;32.00;45.40
62575;DHT22;70119;45.638;11.714;2023-07-22T02:47:59;32.00;45.40
62575;DHT22;70119;45.638;11.714;2023-07-22T02:50:25;32.00;45.30
62575;DHT22;70119;45.638;11.714;2023-07-22T02:52:51;31.90;45.30
62575;DHT22;70119;45.638;11.714;2023-07-22T02:55:18;31.90;45.30
62575;DHT22;70119;45.638;11.714;2023-07-22T02:57:44;31.90;45.30
62575;DHT22;70119;45.638;11.714;2023-07-22T03:00:13;31.90;45.30
62575;DHT22;70119;45.638;11.714;2023-07-22T03:02:39;31.90;45.30
62575;DHT22;70119;45.638;11.714;2023-07-22T03:05:07;31.90;45.30
62575;DHT22;70119;45.638;11.714;2023-07-22T03:07:40;31.90;45.30
62575;DHT22;70119;45.638;11.714;2023-07-22T03:10:07;31.90;45.30
62575;DHT22;70119;45.638;11.714;2023-07-22T03:12:33;31.80;45.40
62575;DHT22;70119;45.638;11.714;2023-07-22T03:14:59;31.80;45.40
62575;DHT22;70119;45.638;11.714;2023-07-22T03:17:26;31.80;45.40
62575;DHT22;70119;45.638;11.714;2023-07-22T03:19:52;31.80;45.40
62575;DHT22;70119;45.638;11.714;2023-07-22T03:22:18;31.80;45.40
62575;DHT22;70119;45.638;11.714;2023-07-22T03:24:46;31.80;45.50
62575;DHT22;70119;45.638;11.714;2023-07-22T03:27:14;31.80;45.60
62575;DHT22;70119;45.638;11.714;2023-07-22T03:29:41;31.80;45.60
62575;DHT22;70119;45.638;11.714;2023-07-22T03:32:07;31.80;45.70
62575;DHT22;70119;45.638;11.714;2023-07-22T03:34:33;31.80;45.70
62575;DHT22;70119;45.638;11.714;2023-07-22T03:36:59;31.80;45.70
62575;DHT22;70119;45.638;11.714;2023-07-22T03:39:25;31.80;45.80
62575;DHT22;70119;45.638;11.714;2023-07-22T03:41:51;31.80;45.80
62575;DHT22;70119;45.638;11.714;2023-07-22T03:44:17;31.80;45.70
62575;DHT22;70119;45.638;11.714;2023-07-22T03:46:43;31.80;45.50
62575;DHT22;70119;45.638;11.714;2023-07-22T03:49:09;31.80;45.40
62575;DHT22;70119;45.638;11.714;2023-07-22T03:51:35;31.80;45.20
62575;DHT22;70119;45.638;11.714;2023-07-22T03:54:01;31.70;45.00
62575;DHT22;70119;45.638;11.714;2023-07-22T03:56:27;31.80;44.70
62575;DHT22;70119;45.638;11.714;2023-07-22T03:58:53;31.70;44.50
62575;DHT22;70119;45.638;11.714;2023-07-22T04:01:19;31.70;44.30
62575;DHT22;70119;45.638;11.714;2023-07-22T04:03:45;31.70;44.40
62575;DHT22;70119;45.638;11.714;2023-07-22T04:06:11;31.70;44.40
62575;DHT22;70119;45.638;11.714;2023-07-22T04:08:37;31.70;44.40
62575;DHT22;70119;45.638;11.714;2023-07-22T04:11:03;31.70;44.10
62575;DHT22;70119;45.638;11.714;2023-07-22T04:13:29;31.70;43.90
62575;DHT22;70119;45.638;11.714;2023-07-22T04:15:55;31.70;44.00
62575;DHT22;70119;45.638;11.714;2023-07-22T04:18:21;31.70;44.00
62575;DHT22;70119;45.638;11.714;2023-07-22T04:20:47;31.60;43.80
62575;DHT22;70119;45.638;11.714;2023-07-22T04:23:13;31.60;43.50
62575;DHT22;70119;45.638;11.714;2023-07-22T04:25:40;31.70;43.30
62575;DHT22;70119;45.638;11.714;2023-07-22T04:28:06;31.60;43.30
62575;DHT22;70119;45.638;11.714;2023-07-22T04:30:34;31.70;43.10
62575;DHT22;70119;45.638;11.714;2023-07-22T04:33:00;31.70;43.10
62575;DHT22;70119;45.638;11.714;2023-07-22T04:35:26;31.70;42.90
62575;DHT22;70119;45.638;11.714;2023-07-22T04:37:51;31.60;42.70
62575;DHT22;70119;45.638;11.714;2023-07-22T04:40:18;31.60;42.50
62575;DHT22;70119;45.638;11.714;2023-07-22T04:42:45;31.50;42.50
62575;DHT22;70119;45.638;11.714;2023-07-22T04:45:11;31.50;42.70
62575;DHT22;70119;45.638;11.714;2023-07-22T04:47:38;31.50;42.80
62575;DHT22;70119;45.638;11.714;2023-07-22T04:50:09;31.50;43.00
62575;DHT22;70119;45.638;11.714;2023-07-22T04:52:36;31.50;43.10
62575;DHT22;70119;45.638;11.714;2023-07-22T04:55:02;31.50;43.10
62575;DHT22;70119;45.638;11.714;2023-07-22T04:57:39;31.50;43.10
62575;DHT22;70119;45.638;11.714;2023-07-22T05:00:08;31.60;43.10
62575;DHT22;70119;45.638;11.714;2023-07-22T05:02:40;31.60;43.00
62575;DHT22;70119;45.638;11.714;2023-07-22T05:05:06;31.50;42.80
62575;DHT22;70119;45.638;11.714;2023-07-22T05:07:33;31.50;42.80
62575;DHT22;70119;45.638;11.714;2023-07-22T05:09:58;31.50;42.80
62575;DHT22;70119;45.638;11.714;2023-07-22T05:12:24;31.60;42.80
62575;DHT22;70119;45.638;11.714;2023-07-22T05:14:50;31.60;42.90
62575;DHT22;70119;45.638;11.714;2023-07-22T05:17:16;31.60;43.10
62575;DHT22;70119;45.638;11.714;2023-07-22T05:19:43;31.60;43.50
62575;DHT22;70119;45.638;11.714;2023-07-22T05:22:10;31.60;43.70
62575;DHT22;70119;45.638;11.714;2023-07-22T05:24:35;31.60;43.90
62575;DHT22;70119;45.638;11.714;2023-07-22T05:27:01;31.60;44.20
62575;DHT22;70119;45.638;11.714;2023-07-22T05:29:28;31.60;44.30
62575;DHT22;70119;45.638;11.714;2023-07-22T05:31:53;31.60;44.30
62575;DHT22;70119;45.638;11.714;2023-07-22T05:34:20;31.60;44.50
62575;DHT22;70119;45.638;11.714;2023-07-22T05:36:48;31.40;44.90
62575;DHT22;70119;45.638;11.714;2023-07-22T05:39:15;31.00;45.10
62575;DHT22;70119;45.638;11.714;2023-07-22T05:41:43;30.90;45.40
62575;DHT22;70119;45.638;11.714;2023-07-22T05:44:10;31.10;45.60
62575;DHT22;70119;45.638;11.714;2023-07-22T05:46:36;31.20;45.30
62575;DHT22;70119;45.638;11.714;2023-07-22T05:49:09;31.20;45.00
62575;DHT22;70119;45.638;11.714;2023-07-22T05:51:43;31.30;44.60
62575;DHT22;70119;45.638;11.714;2023-07-22T05:54:10;31.30;44.40
62575;DHT22;70119;45.638;11.714;2023-07-22T05:56:37;31.30;44.50
62575;DHT22;70119;45.638;11.714;2023-07-22T05:59:03;31.30;44.60
62575;DHT22;70119;45.638;11.714;2023-07-22T06:01:28;31.30;45.00
62575;DHT22;70119;45.638;11.714;2023-07-22T06:03:54;31.30;45.10
62575;DHT22;70119;45.638;11.714;2023-07-22T06:06:20;31.30;45.00
62575;DHT22;70119;45.638;11.714;2023-07-22T06:08:46;31.30;44.90
62575;DHT22;70119;45.638;11.714;2023-07-22T06:11:12;31.30;44.80
62575;DHT22;70119;45.638;11.714;2023-07-22T06:13:38;31.30;44.90
62575;DHT22;70119;45.638;11.714;2023-07-22T06:16:04;31.40;44.80
62575;DHT22;70119;45.638;11.714;2023-07-22T06:18:30;31.40;44.90
62575;DHT22;70119;45.638;11.714;2023-07-22T06:20:56;31.40;44.90
62575;DHT22;70119;45.638;11.714;2023-07-22T06:23:22;31.40;45.00
62575;DHT22;70119;45.638;11.714;2023-07-22T06:25:48;31.40;45.10
62575;DHT22;70119;45.638;11.714;2023-07-22T06:28:14;31.40;45.00
62575;DHT22;70119;45.638;11.714;2023-07-22T06:30:40;31.40;45.00
62575;DHT22;70119;45.638;11.714;2023-07-22T06:33:06;31.50;44.70
62575;DHT22;70119;45.638;11.714;2023-07-22T06:35:32;31.50;44.80
62575;DHT22;70119;45.638;11.714;2023-07-22T06:37:58;31.50;44.70
62575;DHT22;70119;45.638;11.714;2023-07-22T06:40:25;31.50;44.50
62575;DHT22;70119;45.638;11.714;2023-07-22T06:42:52;31.50;44.40
62575;DHT22;70119;45.638;11.714;2023-07-22T06:45:19;31.50;44.20
62575;DHT22;70119;45.638;11.714;2023-07-22T06:47:45;31.60;44.20
62575;DHT22;70119;45.638;11.714;2023-07-22T06:50:12;31.60;44.10
62575;DHT22;70119;45.638;11.714;2023-07-22T06:52:39;31.60;43.90
62575;DHT22;70119;45.638;11.714;2023-07-22T06:55:05;31.50;43.80
62575;DHT22;70119;45.638;11.714;2023-07-22T06:57:33;31.50;43.80
62575;DHT22;70119;45.638;11.714;2023-07-22T06:59:59;31.60;43.90
62575;DHT22;70119;45.638;11.714;2023-07-22T07:02:26;31.60;43.90
62575;DHT22;70119;45.638;11.714;2023-07-22T07:04:52;31.60;44.00
62575;DHT22;70119;45.638;11.714;2023-07-22T07:07:18;31.60;44.20
62575;DHT22;70119;45.638;11.714;2023-07-22T07:09:44;31.60;44.20
62575;DHT22;70119;45.638;11.714;2023-07-22T07:12:10;31.60;44.20
62575;DHT22;70119;45.638;11.714;2023-07-22T07:14:42;31.70;44.30
62575;DHT22;70119;45.638;11.714;2023-07-22T07:17:11;31.50;44.90
62575;DHT22;70119;45.638;11.714;2023-07-22T07:19:38;31.30;45.30
62575;DHT22;70119;45.638;11.714;2023-07-22T07:22:06;31.40;45.30
62575;DHT22;70119;45.638;11.714;2023-07-22T07:24:49;31.40;45.20
62575;DHT22;70119;45.638;11.714;2023-07-22T07:27:16;31.60;45.10
62575;DHT22;70119;45.638;11.714;2023-07-22T07:29:42;31.70;45.00
62575;DHT22;70119;45.638;11.714;2023-07-22T07:32:08;31.70;44.90
62575;DHT22;70119;45.638;11.714;2023-07-22T07:34:34;31.80;44.70
62575;DHT22;70119;45.638;11.714;2023-07-22T07:37:00;31.80;44.60
62575;DHT22;70119;45.638;11.714;2023-07-22T07:39:26;31.80;44.30
62575;DHT22;70119;45.638;11.714;2023-07-22T07:41:54;31.90;44.20
62575;DHT22;70119;45.638;11.714;2023-07-22T07:44:22;31.90;44.00
62575;DHT22;70119;45.638;11.714;2023-07-22T07:46:50;31.80;43.90
62575;DHT22;70119;45.638;11.714;2023-07-22T07:49:17;31.90;43.80
62575;DHT22;70119;45.638;11.714;2023-07-22T07:51:43;31.90;43.80
62575;DHT22;70119;45.638;11.714;2023-07-22T07:54:15;31.80;43.90
62575;DHT22;70119;45.638;11.714;2023-07-22T07:56:45;31.90;43.90
62575;DHT22;70119;45.638;11.714;2023-07-22T07:59:12;31.90;43.80
62575;DHT22;70119;45.638;11.714;2023-07-22T08:01:38;31.90;43.90
62575;DHT22;70119;45.638;11.714;2023-07-22T08:04:08;31.90;44.00
62575;DHT22;70119;45.638;11.714;2023-07-22T08:06:34;31.90;44.00
62575;DHT22;70119;45.638;11.714;2023-07-22T08:09:00;32.00;44.00
62575;DHT22;70119;45.638;11.714;2023-07-22T08:11:26;31.90;43.90
62575;DHT22;70119;45.638;11.714;2023-07-22T08:13:52;32.00;43.90
62575;DHT22;70119;45.638;11.714;2023-07-22T08:16:18;32.00;43.90
62575;DHT22;70119;45.638;11.714;2023-07-22T08:18:44;32.00;43.80
62575;DHT22;70119;45.638;11.714;2023-07-22T08:21:12;31.90;43.80
62575;DHT22;70119;45.638;11.714;2023-07-22T08:23:38;32.00;43.80
62575;DHT22;70119;45.638;11.714;2023-07-22T08:26:05;32.00;43.70
62575;DHT22;70119;45.638;11.714;2023-07-22T08:28:31;32.00;43.60
62575;DHT22;70119;45.638;11.714;2023-07-22T08:30:58;32.00;43.40
62575;DHT22;70119;45.638;11.714;2023-07-22T08:33:26;32.00;43.20
62575;DHT22;70119;45.638;11.714;2023-07-22T08:35:52;31.90;43.30
62575;DHT22;70119;45.638;11.714;2023-07-22T08:38:18;32.00;43.20
62575;DHT22;70119;45.638;11.714;2023-07-22T08:40:44;32.00;43.50
62575;DHT22;70119;45.638;11.714;2023-07-22T08:43:14;32.00;43.40
62575;DHT22;70119;45.638;11.714;2023-07-22T08:45:40;32.10;43.30
62575;DHT22;70119;45.638;11.714;2023-07-22T08:48:08;32.10;43.30
62575;DHT22;70119;45.638;11.714;2023-07-22T08:51:02;32.10;43.60
62575;DHT22;70119;45.638;11.714;2023-07-22T08:53:30;32.00;43.70
62575;DHT22;70119;45.638;11.714;2023-07-22T08:55:57;32.10;43.60
62575;DHT22;70119;45.638;11.714;2023-07-22T08:58:24;32.10;43.60
62575;DHT22;70119;45.638;11.714;2023-07-22T09:00:51;32.10;43.60
62575;DHT22;70119;45.638;11.714;2023-07-22T09:03:18;32.10;43.50
62575;DHT22;70119;45.638;11.714;2023-07-22T09:05:44;32.10;43.60
62575;DHT22;70119;45.638;11.714;2023-07-22T09:08:10;32.10;43.50
62575;DHT22;70119;45.638;11.714;2023-07-22T09:10:37;32.10;43.40
62575;DHT22;70119;45.638;11.714;2023-07-22T09:13:04;32.20;43.40
62575;DHT22;70119;45.638;11.714;2023-07-22T09:15:35;32.20;43.20
62575;DHT22;70119;45.638;11.714;2023-07-22T09:18:02;32.20;43.20
62575;DHT22;70119;45.638;11.714;2023-07-22T09:20:29;32.20;42.80
62575;DHT22;70119;45.638;11.714;2023-07-22T09:22:55;32.20;42.80
62575;DHT22;70119;45.638;11.714;2023-07-22T09:25:23;32.20;42.70
62575;DHT22;70119;45.638;11.714;2023-07-22T09:27:51;32.20;42.70
62575;DHT22;70119;45.638;11.714;2023-07-22T09:30:36;32.20;42.70
62575;DHT22;70119;45.638;11.714;2023-07-22T09:33:06;32.20;42.90
62575;DHT22;70119;45.638;11.714;2023-07-22T09:35:46;32.20;43.20
62575;DHT22;70119;45.638;11.714;2023-07-22T09:38:13;32.20;44.10
62575;DHT22;70119;45.638;11.714;2023-07-22T09:40:41;32.20;44.00
62575;DHT22;70119;45.638;11.714;2023-07-22T09:43:10;32.20;43.90
62575;DHT22;70119;45.638;11.714;2023-07-22T09:45:37;32.20;43.80
62575;DHT22;70119;45.638;11.714;2023-07-22T09:48:04;32.20;43.70
62575;DHT22;70119;45.638;11.714;2023-07-22T09:50:31;32.30;43.70
62575;DHT22;70119;45.638;11.714;2023-07-22T09:52:58;32.20;43.60
62575;DHT22;70119;45.638;11.714;2023-07-22T09:55:26;32.30;43.60
62575;DHT22;70119;45.638;11.714;2023-07-22T09:58:00;32.30;43.50
62575;DHT22;70119;45.638;11.714;2023-07-22T10:00:33;32.40;43.40
62575;DHT22;70119;45.638;11.714;2023-07-22T10:03:01;32.30;43.40
62575;DHT22;70119;45.638;11.714;2023-07-22T10:05:27;32.30;43.40
62575;DHT22;70119;45.638;11.714;2023-07-22T10:07:58;32.30;43.50
62575;DHT22;70119;45.638;11.714;2023-07-22T10:10:33;32.30;43.50
62575;DHT22;70119;45.638;11.714;2023-07-22T10:12:59;32.40;43.40
62575;DHT22;70119;45.638;11.714;2023-07-22T10:15:29;32.40;43.50
62575;DHT22;70119;45.638;11.714;2023-07-22T10:17:56;32.40;43.50
62575;DHT22;70119;45.638;11.714;2023-07-22T10:20:23;32.40;43.50
62575;DHT22;70119;45.638;11.714;2023-07-22T10:22:50;32.40;43.40
62575;DHT22;70119;45.638;11.714;2023-07-22T10:25:19;32.40;43.20
62575;DHT22;70119;45.638;11.714;2023-07-22T10:27:46;32.40;42.90
62575;DHT22;70119;45.638;11.714;2023-07-22T10:30:13;32.30;42.80
62575;DHT22;70119;45.638;11.714;2023-07-22T10:32:42;32.30;42.70
62575;DHT22;70119;45.638;11.714;2023-07-22T10:35:23;32.30;42.80
62575;DHT22;70119;45.638;11.714;2023-07-22T10:38:09;32.30;43.20
62575;DHT22;70119;45.638;11.714;2023-07-22T10:40:51;32.10;44.40
62575;DHT22;70119;45.638;11.714;2023-07-22T10:43:23;32.00;44.30
62575;DHT22;70119;45.638;11.714;2023-07-22T10:45:52;31.90;44.30
62575;DHT22;70119;45.638;11.714;2023-07-22T10:48:19;32.00;44.30
62575;DHT22;70119;45.638;11.714;2023-07-22T10:50:51;32.10;44.50
62575;DHT22;70119;45.638;11.714;2023-07-22T10:53:43;32.10;45.50
62575;DHT22;70119;45.638;11.714;2023-07-22T11:12:17;32.20;44.70
62575;DHT22;70119;45.638;11.714;2023-07-22T11:14:49;32.10;44.70
62575;DHT22;70119;45.638;11.714;2023-07-22T11:17:15;31.80;45.30
62575;DHT22;70119;45.638;11.714;2023-07-22T11:19:41;31.80;45.70
62575;DHT22;70119;45.638;11.714;2023-07-22T11:22:07;31.80;46.00
62575;DHT22;70119;45.638;11.714;2023-07-22T11:24:34;31.50;47.40
62575;DHT22;70119;45.638;11.714;2023-07-22T11:27:05;31.20;48.10
62575;DHT22;70119;45.638;11.714;2023-07-22T11:29:40;31.50;47.30
62575;DHT22;70119;45.638;11.714;2023-07-22T11:32:06;31.60;46.50
62575;DHT22;70119;45.638;11.714;2023-07-22T11:34:33;31.70;46.30
62575;DHT22;70119;45.638;11.714;2023-07-22T11:36:59;31.20;48.30
62575;DHT22;70119;45.638;11.714;2023-07-22T11:39:26;31.20;47.80
62575;DHT22;70119;45.638;11.714;2023-07-22T11:41:53;31.40;47.40
62575;DHT22;70119;45.638;11.714;2023-07-22T11:44:21;31.50;47.80
62575;DHT22;70119;45.638;11.714;2023-07-22T11:47:01;31.20;49.20
62575;DHT22;70119;45.638;11.714;2023-07-22T11:49:35;31.10;49.90
62575;DHT22;70119;45.638;11.714;2023-07-22T11:52:06;30.60;51.50
62575;DHT22;70119;45.638;11.714;2023-07-22T11:54:35;30.40;51.80
62575;DHT22;70119;45.638;11.714;2023-07-22T11:57:21;30.40;50.70
62575;DHT22;70119;45.638;11.714;2023-07-22T11:59:51;30.30;51.00
62575;DHT22;70119;45.638;11.714;2023-07-22T12:02:19;30.30;50.90
62575;DHT22;70119;45.638;11.714;2023-07-22T12:05:03;30.40;52.00
62575;DHT22;70119;45.638;11.714;2023-07-22T12:07:38;30.50;52.00
62575;DHT22;70119;45.638;11.714;2023-07-22T12:10:11;30.30;52.50
62575;DHT22;70119;45.638;11.714;2023-07-22T12:12:41;30.30;52.40
62575;DHT22;70119;45.638;11.714;2023-07-22T12:15:20;30.30;51.90
62575;DHT22;70119;45.638;11.714;2023-07-22T12:18:00;30.50;52.00
62575;DHT22;70119;45.638;11.714;2023-07-22T12:20:28;30.70;51.40
62575;DHT22;70119;45.638;11.714;2023-07-22T12:22:55;30.70;50.80
62575;DHT22;70119;45.638;11.714;2023-07-22T12:25:22;30.90;50.90
62575;DHT22;70119;45.638;11.714;2023-07-22T12:27:48;31.10;50.00
62575;DHT22;70119;45.638;11.714;2023-07-22T12:30:16;31.10;49.60
62575;DHT22;70119;45.638;11.714;2023-07-22T12:32:42;31.30;49.20
62575;DHT22;70119;45.638;11.714;2023-07-22T12:35:08;31.40;48.70
62575;DHT22;70119;45.638;11.714;2023-07-22T12:37:35;31.40;48.40
62575;DHT22;70119;45.638;11.714;2023-07-22T12:40:01;31.50;48.20
62575;DHT22;70119;45.638;11.714;2023-07-22T12:42:30;31.40;48.50
62575;DHT22;70119;45.638;11.714;2023-07-22T12:44:56;31.40;48.20
62575;DHT22;70119;45.638;11.714;2023-07-22T12:47:22;31.50;48.10
62575;DHT22;70119;45.638;11.714;2023-07-22T12:49:48;31.50;48.20
62575;DHT22;70119;45.638;11.714;2023-07-22T12:52:14;31.40;48.20
62575;DHT22;70119;45.638;11.714;2023-07-22T12:54:40;31.40;48.00
62575;DHT22;70119;45.638;11.714;2023-07-22T12:57:06;31.50;48.00
62575;DHT22;70119;45.638;11.714;2023-07-22T12:59:32;31.60;47.80
62575;DHT22;70119;45.638;11.714;2023-07-22T13:01:58;31.70;47.60
62575;DHT22;70119;45.638;11.714;2023-07-22T13:04:31;31.70;47.50
62575;DHT22;70119;45.638;11.714;2023-07-22T13:07:01;31.80;47.30
62575;DHT22;70119;45.638;11.714;2023-07-22T13:09:29;31.80;47.30
62575;DHT22;70119;45.638;11.714;2023-07-22T13:12:00;31.80;47.30
62575;DHT22;70119;45.638;11.714;2023-07-22T13:14:30;31.90;47.00
62575;DHT22;70119;45.638;11.714;2023-07-22T13:17:08;31.90;47.00
62575;DHT22;70119;45.638;11.714;2023-07-22T13:19:36;31.90;46.70
62575;DHT22;70119;45.638;11.714;2023-07-22T13:22:02;32.00;46.70
62575;DHT22;70119;45.638;11.714;2023-07-22T13:24:28;32.00;46.60
62575;DHT22;70119;45.638;11.714;2023-07-22T13:26:56;32.00;46.60
62575;DHT22;70119;45.638;11.714;2023-07-22T13:29:22;32.00;46.50
62575;DHT22;70119;45.638;11.714;2023-07-22T13:31:53;32.10;46.40
62575;DHT22;70119;45.638;11.714;2023-07-22T13:34:22;32.10;46.30
62575;DHT22;70119;45.638;11.714;2023-07-22T13:36:48;32.10;46.20
62575;DHT22;70119;45.638;11.714;2023-07-22T13:39:14;32.10;46.30
62575;DHT22;70119;45.638;11.714;2023-07-22T13:41:40;32.10;46.30
62575;DHT22;70119;45.638;11.714;2023-07-22T13:44:06;32.10;46.20
62575;DHT22;70119;45.638;11.714;2023-07-22T13:46:32;32.10;46.10
62575;DHT22;70119;45.638;11.714;2023-07-22T13:48:58;32.10;46.10
62575;DHT22;70119;45.638;11.714;2023-07-22T13:51:24;32.20;46.10
62575;DHT22;70119;45.638;11.714;2023-07-22T13:53:49;32.20;46.00
62575;DHT22;70119;45.638;11.714;2023-07-22T13:56:17;32.30;46.00
62575;DHT22;70119;45.638;11.714;2023-07-22T13:58:43;32.20;46.00
62575;DHT22;70119;45.638;11.714;2023-07-22T14:01:09;32.20;45.90
62575;DHT22;70119;45.638;11.714;2023-07-22T14:03:35;32.20;45.90
62575;DHT22;70119;45.638;11.714;2023-07-22T14:06:01;32.30;45.90
62575;DHT22;70119;45.638;11.714;2023-07-22T14:08:28;32.30;45.90
62575;DHT22;70119;45.638;11.714;2023-07-22T14:10:54;32.30;45.80
62575;DHT22;70119;45.638;11.714;2023-07-22T14:13:20;32.30;45.80
62575;DHT22;70119;45.638;11.714;2023-07-22T14:15:46;32.30;45.80
62575;DHT22;70119;45.638;11.714;2023-07-22T14:18:12;32.30;45.80
62575;DHT22;70119;45.638;11.714;2023-07-22T14:20:43;32.30;45.80
62575;DHT22;70119;45.638;11.714;2023-07-22T14:23:08;32.30;45.70
62575;DHT22;70119;45.638;11.714;2023-07-22T14:25:34;32.30;45.70
62575;DHT22;70119;45.638;11.714;2023-07-22T14:28:00;32.40;45.70
62575;DHT22;70119;45.638;11.714;2023-07-22T14:30:26;32.40;45.70
62575;DHT22;70119;45.638;11.714;2023-07-22T14:32:52;32.40;45.70
62575;DHT22;70119;45.638;11.714;2023-07-22T14:35:18;32.40;45.70
62575;DHT22;70119;45.638;11.714;2023-07-22T14:37:44;32.40;45.70
62575;DHT22;70119;45.638;11.714;2023-07-22T14:40:10;32.40;45.70
62575;DHT22;70119;45.638;11.714;2023-07-22T14:42:37;32.40;45.70
62575;DHT22;70119;45.638;11.714;2023-07-22T14:45:03;32.40;45.70
62575;DHT22;70119;45.638;11.714;2023-07-22T14:47:30;32.40;45.70
62575;DHT22;70119;45.638;11.714;2023-07-22T14:49:56;32.40;45.70
62575;DHT22;70119;45.638;11.714;2023-07-22T14:52:22;32.40;45.70
62575;DHT22;70119;45.638;11.714;2023-07-22T14:54:49;32.40;45.60
62575;DHT22;70119;45.638;11.714;2023-07-22T14:57:16;32.40;45.60
62575;DHT22;70119;45.638;11.714;2023-07-22T14:59:42;32.40;45.60
62575;DHT22;70119;45.638;11.714;2023-07-22T15:02:08;32.40;45.60
62575;DHT22;70119;45.638;11.714;2023-07-22T15:04:34;32.40;45.60
62575;DHT22;70119;45.638;11.714;2023-07-22T15:07:00;32.40;45.60
62575;DHT22;70119;45.638;11.714;2023-07-22T15:09:26;32.40;45.60
62575;DHT22;70119;45.638;11.714;2023-07-22T15:11:52;32.40;45.60
62575;DHT22;70119;45.638;11.714;2023-07-22T15:14:18;32.40;45.60
62575;DHT22;70119;45.638;11.714;2023-07-22T15:16:44;32.40;45.50
62575;DHT22;70119;45.638;11.714;2023-07-22T15:19:12;32.40;45.60
62575;DHT22;70119;45.638;11.714;2023-07-22T15:21:38;32.40;45.60
62575;DHT22;70119;45.638;11.714;2023-07-22T15:24:05;32.40;45.60
62575;DHT22;70119;45.638;11.714;2023-07-22T15:26:30;32.50;45.60
62575;DHT22;70119;45.638;11.714;2023-07-22T15:28:56;32.40;45.60
62575;DHT22;70119;45.638;11.714;2023-07-22T15:31:22;32.40;45.60
62575;DHT22;70119;45.638;11.714;2023-07-22T15:33:49;32.40;45.60